createdAt,value
2023-04-06T00:02:04.127Z,7.43
2023-04-06T00:04:31.744Z,7.93
2023-04-06T00:06:59.287Z,8.73
2023-04-06T00:09:28.210Z,8.52
2023-04-06T00:11:56.392Z,8.02
2023-04-06T00:14:23.873Z,8.90
2023-04-06T00:16:51.906Z,7.97
2023-04-06T00:19:19.396Z,9.07
2023-04-06T00:21:47.142Z,8.38
2023-04-06T00:24:14.705Z,9.77
2023-04-06T00:26:43.555Z,8.32
2023-04-06T00:29:11.256Z,8.90
2023-04-06T00:31:38.956Z,8.70
2023-04-06T00:34:07.822Z,8.43
2023-04-06T00:36:35.387Z,8.32
2023-04-06T00:39:02.965Z,7.85
2023-04-06T00:41:31.474Z,9.15
2023-04-06T00:44:00.444Z,8.98
2023-04-06T00:46:28.136Z,7.90
2023-04-06T00:48:55.687Z,7.90
2023-04-06T00:51:23.196Z,8.85
2023-04-06T00:53:50.763Z,7.97
2023-04-06T00:56:18.362Z,8.35
2023-04-06T00:58:45.996Z,8.80
2023-04-06T01:01:16.344Z,8.45
2023-04-06T01:03:45.299Z,8.52
2023-04-06T01:06:12.762Z,7.85
2023-04-06T01:08:40.703Z,8.82
2023-04-06T01:11:08.191Z,7.78
2023-04-06T01:13:35.829Z,8.23
2023-04-06T01:16:04.442Z,8.95
2023-04-06T01:18:33.352Z,9.38
2023-04-06T01:21:00.840Z,9.30
2023-04-06T01:23:29.793Z,10.23
2023-04-06T01:25:57.352Z,7.95
2023-04-06T01:28:24.905Z,9.70
2023-04-06T01:30:52.389Z,8.85
2023-04-06T01:33:20.370Z,8.80
2023-04-06T01:35:47.939Z,8.55
2023-04-06T01:38:15.860Z,8.68
2023-04-06T01:40:44.684Z,9.35
2023-04-06T01:43:12.247Z,8.40
2023-04-06T01:45:39.994Z,9.60
2023-04-06T01:48:07.684Z,9.95
2023-04-06T01:50:35.206Z,8.68
2023-04-06T01:53:02.768Z,10.32
2023-04-06T01:55:30.539Z,9.10
2023-04-06T01:57:59.425Z,10.38
2023-04-06T02:00:27.065Z,8.98
2023-04-06T02:02:54.607Z,10.05
2023-04-06T02:05:22.189Z,9.23
2023-04-06T02:07:50.144Z,9.52
2023-04-06T02:10:17.681Z,10.38
2023-04-06T02:12:45.251Z,10.00
2023-04-06T02:15:14.737Z,12.00
2023-04-06T02:17:42.358Z,9.48
2023-04-06T02:20:10.221Z,9.20
2023-04-06T02:22:37.831Z,10.32
2023-04-06T02:25:06.467Z,8.75
2023-04-06T02:27:33.975Z,9.75
2023-04-06T02:30:01.526Z,10.40
2023-04-06T02:32:30.497Z,10.13
2023-04-06T02:34:58.176Z,10.75
2023-04-06T02:37:26.126Z,10.75
2023-04-06T02:39:53.649Z,9.18
2023-04-06T02:42:21.156Z,10.60
2023-04-06T02:44:48.684Z,9.50
2023-04-06T02:47:16.611Z,10.73
2023-04-06T02:49:47.438Z,9.02
2023-04-06T02:52:18.914Z,10.13
2023-04-06T02:54:46.428Z,8.90
2023-04-06T02:57:13.991Z,10.93
2023-04-06T02:59:41.657Z,9.85
2023-04-06T03:02:09.247Z,9.25
2023-04-06T03:04:36.768Z,10.00
2023-04-06T03:07:05.682Z,9.70
2023-04-06T03:09:34.412Z,11.57
2023-04-06T03:12:02.745Z,9.32
2023-04-06T03:14:30.846Z,9.77
2023-04-06T03:16:59.504Z,9.68
2023-04-06T03:19:27.036Z,9.38
2023-04-06T03:21:54.546Z,9.15
2023-04-06T03:24:23.395Z,10.90
2023-04-06T03:26:50.951Z,9.25
2023-04-06T03:29:18.508Z,9.85
2023-04-06T03:31:46.205Z,10.48
2023-04-06T03:34:13.756Z,9.50
2023-04-06T03:36:41.393Z,9.18
2023-04-06T03:39:09.527Z,10.35
2023-04-06T03:41:38.539Z,9.63
2023-04-06T03:44:07.396Z,9.48
2023-04-06T03:46:37.362Z,10.38
2023-04-06T03:49:04.884Z,9.82
2023-04-06T03:51:32.475Z,10.63
2023-04-06T03:53:59.969Z,10.50
2023-04-06T03:56:27.661Z,10.02
2023-04-06T03:58:56.794Z,8.82
2023-04-06T04:01:27.280Z,8.98
2023-04-06T04:03:55.636Z,8.75
2023-04-06T04:06:23.320Z,9.30
2023-04-06T04:08:51.120Z,9.25
2023-04-06T04:11:18.636Z,9.90
2023-04-06T04:13:46.386Z,10.25
2023-04-06T04:16:15.360Z,10.05
2023-04-06T04:18:46.493Z,8.68
2023-04-06T04:21:14.126Z,9.63
2023-04-06T04:23:41.641Z,10.50
2023-04-06T04:26:09.173Z,8.98
2023-04-06T04:28:36.725Z,9.20
2023-04-06T04:31:04.280Z,9.43
2023-04-06T04:33:33.144Z,9.25
2023-04-06T04:36:00.730Z,7.70
2023-04-06T04:38:28.241Z,8.30
2023-04-06T04:40:55.953Z,9.23
2023-04-06T04:43:23.509Z,9.73
2023-04-06T04:45:50.989Z,8.68
2023-04-06T04:48:18.498Z,8.40
2023-04-06T04:50:47.415Z,8.00
2023-04-06T04:53:14.897Z,8.40
2023-04-06T04:55:42.452Z,8.95
2023-04-06T04:58:12.057Z,8.55
2023-04-06T05:00:40.425Z,9.07
2023-04-06T05:03:08.478Z,9.50
2023-04-06T05:05:36.302Z,9.02
2023-04-06T05:08:05.539Z,8.75
2023-04-06T05:10:33.125Z,8.02
2023-04-06T05:13:02.300Z,9.27
2023-04-06T05:15:30.009Z,9.35
2023-04-06T05:17:57.600Z,8.27
2023-04-06T05:20:25.214Z,8.65
2023-04-06T05:22:52.886Z,9.32
2023-04-06T05:25:22.186Z,8.85
2023-04-06T05:27:50.389Z,8.68
2023-04-06T05:30:17.962Z,9.23
2023-04-06T05:32:45.619Z,9.23
2023-04-06T05:35:13.588Z,9.85
2023-04-06T05:37:41.731Z,7.95
2023-04-06T05:40:10.647Z,7.93
2023-04-06T05:42:40.248Z,8.80
2023-04-06T05:45:19.759Z,8.23
2023-04-06T05:47:48.481Z,7.82
2023-04-06T05:50:17.473Z,7.88
2023-04-06T05:52:47.494Z,9.70
2023-04-06T05:55:15.021Z,7.95
2023-04-06T05:57:43.891Z,8.45
2023-04-06T06:00:12.121Z,7.43
2023-04-06T06:02:40.654Z,7.32
2023-04-06T06:05:11.991Z,7.60
2023-04-06T06:07:39.560Z,8.90
2023-04-06T06:10:07.776Z,7.72
2023-04-06T06:12:35.436Z,6.80
2023-04-06T06:15:04.944Z,6.85
2023-04-06T06:17:32.546Z,6.75
2023-04-06T06:20:00.143Z,6.80
2023-04-06T06:22:27.708Z,7.65
2023-04-06T06:24:55.416Z,7.00
2023-04-06T06:27:22.934Z,6.65
2023-04-06T06:29:50.478Z,6.93
2023-04-06T06:35:11.367Z,6.40
2023-04-06T06:37:38.834Z,7.53
2023-04-06T06:40:06.943Z,7.63
2023-04-06T06:42:37.275Z,7.38
2023-04-06T06:45:05.849Z,6.10
2023-04-06T06:47:34.757Z,6.53
2023-04-06T06:50:03.881Z,7.13
2023-04-06T06:52:31.573Z,6.03
2023-04-06T06:54:59.068Z,6.03
2023-04-06T06:57:26.627Z,5.57
2023-04-06T06:59:54.282Z,6.25
2023-04-06T07:02:21.872Z,5.35
2023-04-06T07:04:51.566Z,5.70
2023-04-06T07:07:19.193Z,5.63
2023-04-06T07:09:46.968Z,5.85
2023-04-06T07:12:14.654Z,5.28
2023-04-06T07:14:42.242Z,5.95
2023-04-06T07:17:10.865Z,5.47
2023-04-06T07:19:38.504Z,5.55
2023-04-06T07:22:07.449Z,6.45
2023-04-06T07:24:35.065Z,6.25
2023-04-06T07:27:06.490Z,6.82
2023-04-06T07:29:38.016Z,5.55
2023-04-06T07:32:06.212Z,6.15
2023-04-06T07:34:34.393Z,5.18
2023-04-06T07:37:27.417Z,5.78
2023-04-06T07:39:56.767Z,5.75
2023-04-06T07:42:24.278Z,5.75
2023-04-06T07:44:52.050Z,5.40
2023-04-06T07:47:19.552Z,6.50
2023-04-06T07:49:47.339Z,5.60
2023-04-06T07:55:08.313Z,6.13
2023-04-06T07:57:37.075Z,6.25
2023-04-06T08:00:05.235Z,6.32
2023-04-06T08:02:33.483Z,5.60
2023-04-06T08:05:01.146Z,5.93
2023-04-06T08:07:28.695Z,5.85
2023-04-06T08:09:56.620Z,5.45
2023-04-06T08:12:25.502Z,5.22
2023-04-06T08:14:53.070Z,6.32
2023-04-06T08:20:13.140Z,7.10
2023-04-06T08:22:40.946Z,6.13
2023-04-06T08:25:08.640Z,7.72
2023-04-06T08:27:40.972Z,5.45
2023-04-06T08:30:09.428Z,5.35
2023-04-06T08:32:37.003Z,4.65
2023-04-06T08:35:04.629Z,5.47
2023-04-06T08:37:33.350Z,5.45
2023-04-06T08:40:00.976Z,5.43
2023-04-06T08:42:31.172Z,5.43
2023-04-06T08:45:00.171Z,5.72
2023-04-06T08:47:28.090Z,5.63
2023-04-06T08:49:56.181Z,6.88
2023-04-06T08:52:24.670Z,5.03
2023-04-06T08:54:52.209Z,5.55
2023-04-06T08:57:25.005Z,5.53
2023-04-06T08:59:53.158Z,5.63
2023-04-06T09:02:22.398Z,6.00
2023-04-06T09:10:34.653Z,5.50
2023-04-06T09:13:06.191Z,6.43
2023-04-06T09:15:33.675Z,6.20
2023-04-06T09:23:59.952Z,5.95
2023-04-06T09:26:27.928Z,5.45
2023-04-06T09:28:56.744Z,4.88
2023-04-06T09:31:25.537Z,5.90
2023-04-06T09:33:54.713Z,5.15
2023-04-06T09:36:31.205Z,6.95
2023-04-06T09:38:59.768Z,5.45
2023-04-06T09:41:29.103Z,6.28
2023-04-06T09:44:04.739Z,6.82
2023-04-06T09:46:42.981Z,5.38
2023-04-06T09:52:13.503Z,6.55
2023-04-06T09:54:42.115Z,5.97
2023-04-06T10:00:20.310Z,5.57
2023-04-06T10:02:50.987Z,6.05
2023-04-06T10:08:14.293Z,5.50
2023-04-06T10:10:41.816Z,4.75
2023-04-06T10:13:12.076Z,5.53
2023-04-06T10:15:40.100Z,5.63
2023-04-06T10:18:08.548Z,5.93
2023-04-06T10:20:41.158Z,6.05
2023-04-06T10:23:15.366Z,6.35
2023-04-06T10:28:11.124Z,6.93
2023-04-06T10:30:44.150Z,6.45
2023-04-06T10:33:39.707Z,6.57
2023-04-06T10:42:50.737Z,6.32
2023-04-06T10:45:21.988Z,6.07
2023-04-06T10:47:49.572Z,6.28
2023-04-06T10:50:17.675Z,6.32
2023-04-06T10:52:48.089Z,6.18
2023-04-06T10:55:16.637Z,6.65
2023-04-06T10:57:44.394Z,6.22
2023-04-06T11:04:00.897Z,9.30
2023-04-06T11:06:54.964Z,8.98
2023-04-06T11:13:06.784Z,11.55
2023-04-06T11:15:59.593Z,10.85
2023-04-06T11:22:09.860Z,10.25
2023-04-06T11:24:38.915Z,7.15
2023-04-06T11:27:06.440Z,5.45
2023-04-06T11:29:36.638Z,5.65
2023-04-06T11:32:04.841Z,5.53
2023-04-06T11:34:56.716Z,4.75
2023-04-06T11:37:52.702Z,5.50
2023-04-06T11:40:25.816Z,5.53
2023-04-06T11:42:56.411Z,4.72
2023-04-06T11:45:24.440Z,5.88
2023-04-06T11:47:57.705Z,7.53
2023-04-06T11:50:25.730Z,7.82
2023-04-06T11:53:00.522Z,6.53
2023-04-06T11:55:30.481Z,6.38
2023-04-06T11:57:59.810Z,6.85
2023-04-06T12:06:11.280Z,7.82
2023-04-06T12:08:38.940Z,7.38
2023-04-06T12:11:08.031Z,6.93
2023-04-06T12:19:46.056Z,7.65
2023-04-06T12:22:13.651Z,7.70
2023-04-06T12:24:41.242Z,7.72
2023-04-06T12:27:12.447Z,6.88
2023-04-06T12:29:40.165Z,6.75
2023-04-06T12:32:08.101Z,7.03
2023-04-06T12:34:35.909Z,7.18
2023-04-06T12:37:03.592Z,7.95
2023-04-06T12:39:31.159Z,6.03
2023-04-06T12:41:58.841Z,6.43
2023-04-06T12:44:27.823Z,5.50
2023-04-06T12:46:56.540Z,5.20
2023-04-06T12:49:24.230Z,6.30
2023-04-06T12:51:51.837Z,6.65
2023-04-06T12:54:19.459Z,5.88
2023-04-06T12:56:51.364Z,5.43
2023-04-06T12:59:22.513Z,5.38
2023-04-06T13:01:52.795Z,5.55
2023-04-06T13:04:20.447Z,5.07
2023-04-06T13:06:48.040Z,4.15
2023-04-06T13:09:15.731Z,4.95
2023-04-06T13:11:43.504Z,5.22
2023-04-06T13:14:11.277Z,5.50
2023-04-06T13:16:38.883Z,4.93
2023-04-06T13:19:07.778Z,4.63
2023-04-06T13:21:37.830Z,5.10
2023-04-06T13:24:06.145Z,4.47
2023-04-06T13:26:33.718Z,5.53
2023-04-06T13:29:01.822Z,6.43
2023-04-06T13:31:29.451Z,5.80
2023-04-06T13:33:57.020Z,5.68
2023-04-06T13:36:26.160Z,5.35
2023-04-06T13:38:57.352Z,6.45
2023-04-06T13:41:26.085Z,6.97
2023-04-06T13:43:56.451Z,7.05
2023-04-06T13:46:27.067Z,8.15
2023-04-06T13:48:57.250Z,7.13
2023-04-06T13:51:27.898Z,6.45
2023-04-06T13:53:56.153Z,7.55
2023-04-06T13:56:23.923Z,6.25
2023-04-06T13:58:51.703Z,7.68
2023-04-06T14:01:19.699Z,6.85
2023-04-06T14:03:48.825Z,6.88
2023-04-06T14:08:50.468Z,5.93
2023-04-06T14:17:01.537Z,6.30
2023-04-06T14:19:32.426Z,6.63
2023-04-06T14:24:58.210Z,6.78
2023-04-06T14:27:25.848Z,6.35
2023-04-06T14:29:53.928Z,7.10
2023-04-06T14:32:22.069Z,6.07
2023-04-06T14:34:49.661Z,7.03
2023-04-06T14:37:18.498Z,7.07
2023-04-06T14:39:46.157Z,7.28
2023-04-06T14:42:15.033Z,7.95
2023-04-06T14:44:43.912Z,7.18
2023-04-06T14:47:11.805Z,7.32
2023-04-06T14:49:39.448Z,7.22
2023-04-06T14:52:07.077Z,8.07
2023-04-06T15:00:20.969Z,7.97
2023-04-06T15:02:49.204Z,7.55
2023-04-06T15:05:17.701Z,8.68
2023-04-06T15:07:45.391Z,8.20
2023-04-06T15:10:13.013Z,9.38
2023-04-06T15:12:41.923Z,7.93
2023-04-06T15:15:11.634Z,8.13
2023-04-06T15:17:39.133Z,8.73
2023-04-06T15:20:07.783Z,8.05
2023-04-06T15:22:35.535Z,8.25
2023-04-06T15:25:03.161Z,9.25
2023-04-06T15:30:31.769Z,8.85
2023-04-06T15:33:01.583Z,9.73
2023-04-06T15:35:29.822Z,8.73
2023-04-06T15:47:10.002Z,9.77
2023-04-06T15:49:43.454Z,9.93
2023-04-06T16:03:59.449Z,9.02
2023-04-06T16:06:34.474Z,9.25
2023-04-06T16:09:02.588Z,8.65
2023-04-06T16:11:32.607Z,10.48
2023-04-06T16:14:06.248Z,9.65
2023-04-06T16:16:33.950Z,10.00
2023-04-06T16:19:03.230Z,10.27
2023-04-06T16:21:38.400Z,10.18
2023-04-06T16:24:30.886Z,9.75
2023-04-06T16:27:00.857Z,10.55
2023-04-06T16:29:31.860Z,9.55
2023-04-06T16:34:55.725Z,10.00
2023-04-06T16:37:24.686Z,11.77
2023-04-06T16:46:02.397Z,10.38
2023-04-06T16:48:54.032Z,9.32
2023-04-06T16:51:50.888Z,9.00
2023-04-06T16:54:20.116Z,9.07
2023-04-06T16:56:47.808Z,9.77
2023-04-06T16:59:15.459Z,10.48
2023-04-06T17:01:43.545Z,9.52
2023-04-06T17:07:02.340Z,10.30
2023-04-06T17:12:03.009Z,9.25
2023-04-06T17:14:30.543Z,9.45
2023-04-06T17:16:58.094Z,7.78
2023-04-06T17:19:27.081Z,7.72
2023-04-06T17:21:55.354Z,7.70
2023-04-06T17:24:23.036Z,8.00
2023-04-06T17:26:50.607Z,10.07
2023-04-06T17:35:05.365Z,12.68
2023-04-06T17:37:34.858Z,11.90
2023-04-06T17:40:02.428Z,13.88
2023-04-06T17:45:24.066Z,13.85
2023-04-06T17:47:51.952Z,13.93
2023-04-06T17:50:21.055Z,14.02
2023-04-06T17:52:50.778Z,14.15
2023-04-06T17:55:20.692Z,11.55
2023-04-06T17:57:51.717Z,11.88
2023-04-06T18:00:24.300Z,11.40
2023-04-06T18:02:53.607Z,10.85
2023-04-06T18:05:21.452Z,10.00
2023-04-06T18:10:48.505Z,7.65
2023-04-06T18:13:16.366Z,7.63
2023-04-06T18:15:43.963Z,7.70
2023-04-06T18:18:13.410Z,7.43
2023-04-06T18:20:41.616Z,8.50
2023-04-06T18:23:09.294Z,8.30
2023-04-06T18:25:45.453Z,7.78
2023-04-06T18:28:13.169Z,7.85
2023-04-06T18:30:48.127Z,8.15
2023-04-06T18:33:17.044Z,7.43
2023-04-06T18:35:44.699Z,7.65
2023-04-06T18:38:14.374Z,7.20
2023-04-06T18:40:42.397Z,7.30
2023-04-06T18:43:11.135Z,7.00
2023-04-06T18:45:39.470Z,6.50
2023-04-06T18:48:09.061Z,8.25
2023-04-06T18:50:40.175Z,7.47
2023-04-06T18:53:08.114Z,7.38
2023-04-06T18:55:36.352Z,7.97
2023-04-06T18:58:05.844Z,8.00
2023-04-06T19:00:33.480Z,8.38
2023-04-06T19:03:01.359Z,7.00
2023-04-06T19:05:29.027Z,7.57
2023-04-06T19:07:57.934Z,7.40
2023-04-06T19:10:29.545Z,7.95
2023-04-06T19:12:58.606Z,7.97
2023-04-06T19:15:26.206Z,7.18
2023-04-06T19:17:54.264Z,6.70
2023-04-06T19:20:24.903Z,7.32
2023-04-06T19:22:52.613Z,6.57
2023-04-06T19:25:21.633Z,7.95
2023-04-06T19:27:49.614Z,7.10
2023-04-06T19:30:20.180Z,7.05
2023-04-06T19:32:47.698Z,7.70
2023-04-06T19:35:15.544Z,7.35
2023-04-06T19:37:44.271Z,10.35
2023-04-06T19:40:11.945Z,14.05
2023-04-06T19:45:41.672Z,14.73
2023-04-06T19:48:10.998Z,14.18
2023-04-06T19:50:42.607Z,14.77
2023-04-06T19:53:10.106Z,15.52
2023-04-06T19:55:37.609Z,13.60
2023-04-06T19:58:06.468Z,13.63
2023-04-06T20:00:34.018Z,14.45
2023-04-06T20:03:01.697Z,11.65
2023-04-06T20:14:32.605Z,11.73
2023-04-06T20:17:00.839Z,11.93
2023-04-06T20:19:28.579Z,10.43
2023-04-06T20:30:32.474Z,10.50
2023-04-06T20:33:02.114Z,9.65
2023-04-06T20:35:31.103Z,9.65
2023-04-06T20:38:05.479Z,9.52
2023-04-06T20:40:35.402Z,9.98
2023-04-06T20:43:04.467Z,9.50
2023-04-06T20:45:39.033Z,9.82
2023-04-06T20:48:06.760Z,9.03
2023-04-06T20:50:34.392Z,9.90
2023-04-06T20:53:02.088Z,8.90
2023-04-06T20:55:29.643Z,9.52
2023-04-06T20:57:57.239Z,9.05
2023-04-06T21:00:25.703Z,8.30
2023-04-06T21:02:55.729Z,7.95
2023-04-06T21:05:23.682Z,8.38
2023-04-06T21:10:42.771Z,8.85
2023-04-06T21:13:10.473Z,8.82
2023-04-06T21:15:38.070Z,6.95
2023-04-06T21:18:07.246Z,5.45
2023-04-06T21:20:35.067Z,6.13
2023-04-06T21:23:02.680Z,5.13
2023-04-06T21:25:30.251Z,4.82
2023-04-06T21:27:57.863Z,5.45
2023-04-06T21:30:25.372Z,4.40
2023-04-06T21:32:53.801Z,4.22
2023-04-06T21:35:22.696Z,4.38
2023-04-06T21:37:50.205Z,4.43
2023-04-06T21:43:10.857Z,4.70
2023-04-06T21:45:38.418Z,4.75
2023-04-06T21:48:06.307Z,4.68
2023-04-06T21:50:39.759Z,4.20
2023-04-06T21:53:07.549Z,5.67
2023-04-06T21:55:35.110Z,4.90
2023-04-06T21:58:02.992Z,5.07
2023-04-06T22:00:30.589Z,6.35
2023-04-06T22:02:58.855Z,5.25
2023-04-06T22:05:26.580Z,5.38
2023-04-06T22:07:57.204Z,5.50
2023-04-06T22:10:24.802Z,7.28
2023-04-06T22:12:52.463Z,5.93
2023-04-06T22:15:20.126Z,5.50
2023-04-06T22:17:47.718Z,6.13
2023-04-06T22:23:08.400Z,6.13
2023-04-06T22:25:35.979Z,6.07
2023-04-06T22:28:03.537Z,6.60
2023-04-06T22:30:31.099Z,6.13
2023-04-06T22:32:58.614Z,5.60
2023-04-06T22:35:26.269Z,5.88
2023-04-06T22:37:54.809Z,5.20
2023-04-06T22:40:23.755Z,5.30
2023-04-06T22:42:51.337Z,4.75
2023-04-06T22:45:43.543Z,5.10
2023-04-06T22:48:12.223Z,4.85
2023-04-06T22:50:39.902Z,5.97
2023-04-06T22:53:07.552Z,4.85
2023-04-06T22:55:36.449Z,5.47
2023-04-06T22:58:04.009Z,5.00
2023-04-06T23:00:31.565Z,4.22
2023-04-06T23:02:59.452Z,3.83
2023-04-06T23:05:27.170Z,4.88
2023-04-06T23:07:54.691Z,4.57
2023-04-06T23:10:22.225Z,4.38
2023-04-06T23:12:51.166Z,4.50
2023-04-06T23:15:18.969Z,4.20
2023-04-06T23:17:46.621Z,4.80
2023-04-06T23:20:14.207Z,4.40
2023-04-06T23:22:41.741Z,4.45
2023-04-06T23:25:09.861Z,4.82
2023-04-06T23:27:37.358Z,4.50
2023-04-06T23:30:07.010Z,3.88
2023-04-06T23:32:34.598Z,4.40
2023-04-06T23:35:02.209Z,4.25
2023-04-06T23:37:29.895Z,5.13
2023-04-06T23:39:57.986Z,3.65
2023-04-06T23:42:28.818Z,4.63
2023-04-06T23:44:56.837Z,3.88
2023-04-06T23:47:25.860Z,4.38
2023-04-06T23:49:53.410Z,4.97
2023-04-06T23:52:21.043Z,4.55
2023-04-06T23:54:48.585Z,5.47
2023-04-06T23:57:16.149Z,4.47
2023-04-06T23:59:43.717Z,4.47
